Detall de PIREP

Printer-friendly versionPDF version

[2009/06/20 09:05:00]
Flight IATA:CT2111
Pilot Number:011
Company ICAO:CAT
Aircraft Type:B463/A
PAX:100
Departing Airport: LEST
Destination Airport: LEVC
Alternate Airport:LEPA
Online: VATSIM
Route:FORNO UN733 ZMR ULISS KALMA UH100 CJN UN733 CLS
Flight Level:FL310
No Slew and time accel
No pause
Crash detect
Detect pilot in Cockpit between each 30 and 45 minutes
09:05 Zero fuel Weight: 84500 Lbs, Fuel Weight: 12422 Lbs
09:05 VATSIM:LEST 200830Z 06011KT 020V110 9999 FEW020 16/09 Q1023 NOSIG
09:05 VATSIM:LEVC 200830Z 08006KT 030V120 9999 SCT020 SCT030 24/17 Q1019 NOSIG
09:07 Parking Brakes off
09:18 Take-off
09:18 Take off Weight: 96415 Lbs
09:18 Wind: 066 @ 013 Knots Heading: 350
09:18 POS N42 53 54 W008 24 56
09:18 Gear Up: 163 Knots
09:18 Flaps:3 at 163 Knots
09:20 Flaps:2 at 209 Knots
09:20 Flaps:0 at 204 Knots
09:33 Wind:063@022 Knots Heading: 120
Ground Speed: 408 Knots Altitude 30295 ft
09:33 TOC
09:33 Fuel Weight: 9414 Lb
09:48 Wind:064@033 Knots Heading: 136 Ground Speed: 417 Knots Altitude 31259 ft
10:03 Wind:053@023 Knots Heading: 092 Ground Speed: 417 Knots Altitude 31187 ft
10:08 TOD
10:08 Fuel Weight: 6202 Lb
10:18 Wind:095@011 Knots Heading: 121 Ground Speed: 335 Knots Altitude 15344 ft
10:26 Flaps:1 at 220 Knots
10:26 Flaps:2 at 217 Knots
10:27 Flaps:3 at 199 Knots
10:28 Flaps:4 at 192 Knots
10:28 Gear Down: 189 Knots
10:29 Flaps:5 at 179 Knots
10:31 TouchDown:Rate -319 ft/min Speed: 123 Knots
10:31 VATSIM:LEVC 201000Z 08009KT 040V110 9999 SCT030 26/15 Q1019 NOSIG
10:31 Land
10:31 Wind:082@009 Knots
10:31 Heading: 118
10:31 Flight Duration: 01:13
10:31 Landing Weight: 89838 Lbs
10:31 POS N39 29 20 W000 28 50
10:34 Parking brakes on
10:34 Block to Block Duration: 01:28

10:34 Final Fuel: 5156 Lbls
10:34 Spent Fuel: 7266 Lbls
10:34 Flight Length: 265 NM
10:34 TOD Land Length: 43 NM

Exportar CSV

Powered by Drupal - Modified by Danger4k